createdAt,value
2023-05-22T00:00:29.642Z,247.10
2023-05-22T00:01:29.646Z,244.28
2023-05-22T00:02:29.712Z,246.92
2023-05-22T00:03:29.710Z,245.05
2023-05-22T00:04:29.700Z,244.24
2023-05-22T00:05:29.711Z,245.11
2023-05-22T00:06:29.691Z,245.15
2023-05-22T00:07:29.704Z,245.86
2023-05-22T00:08:30.000Z,241.27
2023-05-22T00:09:29.761Z,244.62
2023-05-22T00:10:29.735Z,246.06
2023-05-22T00:11:29.752Z,246.54
2023-05-22T00:12:29.758Z,244.91
2023-05-22T00:13:29.774Z,246.48
2023-05-22T00:14:29.784Z,245.69
2023-05-22T00:15:29.789Z,244.33
2023-05-22T00:16:29.806Z,246.28
2023-05-22T00:17:29.877Z,247.38
2023-05-22T00:18:29.818Z,243.83
2023-05-22T00:19:29.894Z,247.50
2023-05-22T00:20:29.835Z,247.61
2023-05-22T00:21:29.842Z,246.19
2023-05-22T00:22:29.858Z,245.44
2023-05-22T00:23:29.876Z,248.81
2023-05-22T00:24:29.862Z,245.53
2023-05-22T00:25:29.875Z,243.55
2023-05-22T00:26:29.894Z,248.20
2023-05-22T00:27:29.908Z,244.99
2023-05-22T00:28:29.907Z,247.24
2023-05-22T00:29:29.928Z,246.72
2023-05-22T00:30:29.931Z,246.47
2023-05-22T00:31:29.940Z,246.31
2023-05-22T00:32:30.001Z,247.03
2023-05-22T00:33:29.971Z,246.74
2023-05-22T00:34:30.022Z,247.47
2023-05-22T00:35:29.986Z,248.13
2023-05-22T00:36:29.986Z,247.26
2023-05-22T00:37:30.094Z,247.64
2023-05-22T00:38:30.014Z,243.55
2023-05-22T00:39:30.028Z,243.92
2023-05-22T00:40:30.032Z,248.82
2023-05-22T00:41:30.052Z,247.62
2023-05-22T00:42:30.069Z,244.65
2023-05-22T00:43:30.076Z,246.65
2023-05-22T00:44:30.092Z,247.29
2023-05-22T00:45:30.114Z,246.11
2023-05-22T00:46:30.153Z,248.53
2023-05-22T00:47:30.143Z,247.76
2023-05-22T00:48:30.112Z,247.97
2023-05-22T00:49:30.120Z,248.06
2023-05-22T00:50:30.163Z,245.57
2023-05-22T00:51:30.193Z,247.43
2023-05-22T00:52:30.232Z,244.78
2023-05-22T00:53:30.380Z,246.00
2023-05-22T00:54:30.312Z,245.83
2023-05-22T00:55:30.338Z,246.62
2023-05-22T00:56:30.365Z,243.25
2023-05-22T00:57:30.404Z,246.96
2023-05-22T00:58:30.436Z,248.24
2023-05-22T00:59:30.464Z,247.23
2023-05-22T01:00:30.502Z,243.55
2023-05-22T01:01:30.564Z,247.98
2023-05-22T01:02:30.601Z,248.64
2023-05-22T01:03:30.648Z,245.03
2023-05-22T01:04:30.647Z,247.25
2023-05-22T01:05:30.688Z,246.04
2023-05-22T01:06:30.722Z,247.70
2023-05-22T01:07:30.751Z,243.63
2023-05-22T01:08:30.776Z,245.23
2023-05-22T01:09:30.801Z,246.67
2023-05-22T01:10:30.848Z,247.83
2023-05-22T01:11:30.869Z,245.25
2023-05-22T01:12:30.911Z,247.82
2023-05-22T01:13:30.912Z,248.02
2023-05-22T01:14:30.918Z,248.14
2023-05-22T01:15:30.933Z,248.06
2023-05-22T01:16:30.991Z,249.44
2023-05-22T01:17:30.970Z,247.06
2023-05-22T01:18:30.977Z,243.68
2023-05-22T01:19:31.095Z,246.95
2023-05-22T01:20:30.974Z,248.68
2023-05-22T01:21:30.980Z,246.77
2023-05-22T01:22:30.992Z,248.95
2023-05-22T01:23:31.016Z,247.66
2023-05-22T01:24:31.021Z,242.97
2023-05-22T01:25:31.121Z,244.48
2023-05-22T01:26:31.050Z,245.53
2023-05-22T01:27:31.050Z,245.92
2023-05-22T01:28:31.078Z,245.13
2023-05-22T01:29:31.071Z,245.21
2023-05-22T01:30:31.068Z,246.98
2023-05-22T01:31:31.096Z,245.29
2023-05-22T01:32:31.187Z,247.06
2023-05-22T01:33:31.204Z,245.61
2023-05-22T01:34:31.112Z,247.64
2023-05-22T01:35:31.121Z,244.73
2023-05-22T01:36:31.127Z,247.74
2023-05-22T01:37:31.154Z,245.21
2023-05-22T01:38:31.203Z,247.41
2023-05-22T01:39:31.208Z,242.52
2023-05-22T01:40:31.239Z,247.12
2023-05-22T01:41:31.282Z,244.23
2023-05-22T01:42:31.339Z,243.69
2023-05-22T01:43:31.349Z,246.00
2023-05-22T01:44:31.413Z,244.88
2023-05-22T01:45:31.470Z,244.46
2023-05-22T01:46:31.518Z,247.89
2023-05-22T01:47:31.562Z,244.68
2023-05-22T01:48:31.566Z,246.77
2023-05-22T01:49:31.610Z,246.02
2023-05-22T01:50:31.661Z,244.98
2023-05-22T01:51:31.674Z,246.04
2023-05-22T01:52:31.680Z,246.29
2023-05-22T01:53:31.683Z,246.20
2023-05-22T01:54:31.698Z,245.23
2023-05-22T01:55:31.711Z,246.31
2023-05-22T01:56:31.724Z,246.65
2023-05-22T01:57:31.735Z,246.25
2023-05-22T01:58:31.781Z,246.89
2023-05-22T01:59:31.754Z,246.35
2023-05-22T02:00:31.768Z,244.95
2023-05-22T02:01:31.814Z,245.71
2023-05-22T02:02:31.881Z,246.67
2023-05-22T02:03:31.862Z,245.83
2023-05-22T02:04:31.803Z,246.85
2023-05-22T02:05:31.804Z,246.83
2023-05-22T02:06:31.815Z,246.12
2023-05-22T02:07:31.835Z,248.62
2023-05-22T02:08:31.847Z,244.90
2023-05-22T02:09:31.858Z,246.47
2023-05-22T02:10:31.875Z,245.79
2023-05-22T02:11:31.880Z,244.68
2023-05-22T02:12:31.917Z,244.97
2023-05-22T02:13:31.910Z,245.52
2023-05-22T02:14:31.916Z,245.43
2023-05-22T02:15:31.947Z,242.86
2023-05-22T02:16:31.949Z,244.39
2023-05-22T02:17:31.995Z,244.25
2023-05-22T02:18:31.963Z,248.72
2023-05-22T02:19:32.025Z,244.72
2023-05-22T02:20:32.000Z,245.76
2023-05-22T02:21:32.005Z,243.49
2023-05-22T02:22:32.038Z,245.61
2023-05-22T02:23:32.042Z,245.22
2023-05-22T02:24:32.060Z,244.85
2023-05-22T02:25:32.090Z,243.92
2023-05-22T02:26:32.087Z,243.23
2023-05-22T02:27:32.109Z,244.55
2023-05-22T02:28:32.132Z,243.12
2023-05-22T02:29:32.135Z,245.55
2023-05-22T02:30:32.148Z,244.53
2023-05-22T02:31:32.269Z,242.39
2023-05-22T02:32:32.213Z,242.73
2023-05-22T02:33:32.211Z,244.39
2023-05-22T02:34:32.226Z,246.18
2023-05-22T02:35:32.229Z,242.74
2023-05-22T02:36:32.260Z,243.85
2023-05-22T02:37:32.309Z,244.03
2023-05-22T02:38:32.352Z,245.28
2023-05-22T02:39:32.412Z,242.55
2023-05-22T02:40:32.416Z,242.81
2023-05-22T02:41:32.442Z,243.01
2023-05-22T02:42:32.462Z,243.63
2023-05-22T02:43:32.457Z,244.03
2023-05-22T02:44:32.483Z,244.14
2023-05-22T02:45:32.492Z,245.46
2023-05-22T02:46:32.522Z,245.13
2023-05-22T02:47:32.591Z,244.43
2023-05-22T02:48:32.554Z,244.77
2023-05-22T02:49:32.566Z,245.45
2023-05-22T02:50:32.576Z,242.98
2023-05-22T02:51:32.586Z,250.00
2023-05-22T02:52:32.608Z,245.60
2023-05-22T02:53:32.615Z,243.00
2023-05-22T02:54:32.633Z,243.73
2023-05-22T02:55:32.646Z,243.05
2023-05-22T02:56:32.665Z,245.63
2023-05-22T02:57:32.684Z,245.10
2023-05-22T02:58:32.702Z,248.22
2023-05-22T02:59:32.710Z,248.40
2023-05-22T03:00:32.723Z,248.76
2023-05-22T03:01:32.859Z,245.81
2023-05-22T03:02:32.845Z,243.75
2023-05-22T03:03:32.809Z,248.33
2023-05-22T03:04:32.778Z,247.50
2023-05-22T03:05:32.793Z,248.47
2023-05-22T03:06:32.810Z,248.09
2023-05-22T03:07:32.822Z,244.95
2023-05-22T03:08:32.857Z,247.09
2023-05-22T03:09:32.860Z,244.67
2023-05-22T03:10:32.887Z,248.12
2023-05-22T03:11:32.892Z,243.84
2023-05-22T03:12:32.951Z,243.97
2023-05-22T03:13:32.928Z,244.77
2023-05-22T03:14:32.929Z,246.04
2023-05-22T03:15:32.937Z,246.53
2023-05-22T03:16:33.018Z,245.60
2023-05-22T03:17:33.078Z,244.13
2023-05-22T03:18:32.977Z,243.13
2023-05-22T03:19:33.019Z,244.81
2023-05-22T03:20:33.013Z,242.90
2023-05-22T03:21:33.057Z,243.06
2023-05-22T03:22:33.107Z,243.60
2023-05-22T03:23:33.158Z,244.04
2023-05-22T03:24:33.154Z,244.25
2023-05-22T03:25:33.165Z,245.02
2023-05-22T03:26:33.164Z,244.06
2023-05-22T03:27:33.200Z,246.03
2023-05-22T03:28:33.234Z,244.42
2023-05-22T03:29:33.198Z,248.27
2023-05-22T03:30:33.231Z,243.58
2023-05-22T03:31:33.239Z,242.10
2023-05-22T03:32:33.285Z,245.48
2023-05-22T03:33:33.307Z,244.19
2023-05-22T03:34:33.284Z,242.54
2023-05-22T03:35:33.291Z,245.30
2023-05-22T03:36:33.294Z,241.29
2023-05-22T03:37:33.315Z,243.25
2023-05-22T03:38:33.323Z,242.41
2023-05-22T03:39:33.326Z,243.56
2023-05-22T03:40:33.356Z,241.06
2023-05-22T03:41:33.427Z,243.89
2023-05-22T03:42:33.476Z,244.29
2023-05-22T03:43:33.519Z,241.97
2023-05-22T03:44:33.569Z,241.55
2023-05-22T03:45:33.642Z,244.47
2023-05-22T03:46:33.658Z,244.76
2023-05-22T03:47:33.767Z,244.23
2023-05-22T03:48:33.764Z,240.89
2023-05-22T03:49:33.802Z,242.43
2023-05-22T03:50:33.855Z,244.94
2023-05-22T03:51:33.895Z,243.09
2023-05-22T03:52:33.959Z,240.75
2023-05-22T03:53:33.986Z,244.05
2023-05-22T03:54:34.038Z,242.80
2023-05-22T03:55:34.073Z,241.47
2023-05-22T03:56:34.135Z,239.88
2023-05-22T03:57:34.178Z,240.28
2023-05-22T03:58:34.241Z,241.74
2023-05-22T03:59:34.274Z,240.85
2023-05-22T04:00:34.348Z,242.43
2023-05-22T04:01:34.385Z,241.85
2023-05-22T04:02:34.490Z,241.44
2023-05-22T04:03:34.535Z,242.71
2023-05-22T04:04:34.581Z,241.81
2023-05-22T04:05:34.660Z,241.18
2023-05-22T04:06:34.651Z,239.81
2023-05-22T04:07:34.738Z,244.08
2023-05-22T04:08:34.779Z,242.79
2023-05-22T04:09:34.808Z,242.99
2023-05-22T04:10:34.870Z,242.01
2023-05-22T04:11:34.909Z,242.20
2023-05-22T04:12:34.972Z,244.31
2023-05-22T04:13:35.010Z,243.78
2023-05-22T04:14:35.054Z,242.92
2023-05-22T04:15:35.126Z,244.19
2023-05-22T04:16:35.156Z,241.51
2023-05-22T04:17:35.229Z,238.10
2023-05-22T04:18:35.259Z,240.68
2023-05-22T04:19:35.322Z,242.59
2023-05-22T04:20:35.334Z,240.57
2023-05-22T04:21:35.485Z,239.86
2023-05-22T04:22:35.439Z,242.76
2023-05-22T04:23:35.470Z,242.33
2023-05-22T04:24:35.521Z,241.87
2023-05-22T04:25:35.553Z,243.01
2023-05-22T04:26:35.606Z,241.42
2023-05-22T04:27:35.647Z,241.94
2023-05-22T04:28:35.686Z,241.07
2023-05-22T04:29:35.725Z,242.14
2023-05-22T04:30:35.776Z,241.66
2023-05-22T04:31:35.988Z,244.16
2023-05-22T04:32:35.872Z,240.58
2023-05-22T04:33:35.900Z,241.65
2023-05-22T04:34:35.950Z,243.13
2023-05-22T04:35:36.019Z,240.83
2023-05-22T04:36:36.055Z,242.49
2023-05-22T04:37:36.046Z,242.75
2023-05-22T04:38:36.054Z,242.77
2023-05-22T04:39:36.081Z,243.24
2023-05-22T04:40:36.080Z,242.67
2023-05-22T04:41:36.089Z,243.72
2023-05-22T04:42:36.105Z,241.01
2023-05-22T04:43:36.112Z,240.25
2023-05-22T04:44:36.122Z,244.21
2023-05-22T04:45:36.133Z,242.02
2023-05-22T04:46:36.245Z,242.82
2023-05-22T04:47:36.172Z,242.26
2023-05-22T04:48:36.194Z,240.21
2023-05-22T04:49:36.197Z,241.23
2023-05-22T04:50:36.210Z,238.56
2023-05-22T04:51:36.205Z,241.22
2023-05-22T04:52:36.273Z,236.02
2023-05-22T04:53:36.367Z,234.87
2023-05-22T04:54:36.274Z,232.17
2023-05-22T04:55:36.284Z,232.34
2023-05-22T04:56:37.347Z,233.02
2023-05-22T04:57:36.320Z,232.30
2023-05-22T04:58:36.322Z,233.96
2023-05-22T04:59:36.353Z,230.08
2023-05-22T05:00:36.427Z,232.40
2023-05-22T05:01:36.450Z,232.47
2023-05-22T05:02:36.435Z,232.95
2023-05-22T05:03:36.489Z,231.58
2023-05-22T05:04:36.438Z,229.56
2023-05-22T05:05:36.466Z,222.63
2023-05-22T05:06:36.471Z,226.57
2023-05-22T05:07:36.491Z,226.71
2023-05-22T05:08:36.502Z,222.54
2023-05-22T05:09:36.538Z,222.33
2023-05-22T05:10:36.567Z,219.13
2023-05-22T05:11:36.574Z,219.55
2023-05-22T05:12:36.593Z,226.58
2023-05-22T05:13:36.602Z,220.52
2023-05-22T05:14:36.606Z,216.38
2023-05-22T05:15:36.653Z,214.55
2023-05-22T05:16:36.662Z,214.25
2023-05-22T05:17:36.712Z,207.43
2023-05-22T05:18:36.694Z,208.28
2023-05-22T05:19:37.169Z,204.04
2023-05-22T05:20:36.892Z,202.55
2023-05-22T05:21:36.754Z,205.54
2023-05-22T05:22:36.798Z,205.37
2023-05-22T05:23:36.792Z,198.84
2023-05-22T05:24:36.842Z,197.31
2023-05-22T05:25:36.939Z,201.00
2023-05-22T05:26:36.865Z,202.65
2023-05-22T05:27:36.887Z,197.30
2023-05-22T05:28:36.929Z,200.00
2023-05-22T05:29:36.966Z,197.90
2023-05-22T05:30:37.084Z,196.14
2023-05-22T05:31:36.983Z,196.55
2023-05-22T05:32:37.044Z,174.57
2023-05-22T05:33:37.079Z,141.85
2023-05-22T05:34:37.137Z,124.47
2023-05-22T05:35:37.218Z,105.77
2023-05-22T05:36:37.286Z,84.00
2023-05-22T05:37:37.377Z,75.13
2023-05-22T05:38:37.455Z,84.38
2023-05-22T05:39:37.558Z,93.63
2023-05-22T05:40:37.787Z,93.94
2023-05-22T05:41:37.815Z,69.93
2023-05-22T05:42:37.776Z,70.96
2023-05-22T05:43:37.817Z,61.04
2023-05-22T05:44:37.866Z,65.43
2023-05-22T05:45:37.899Z,61.41
2023-05-22T05:46:37.949Z,67.01
2023-05-22T05:47:38.020Z,67.26
2023-05-22T05:48:37.975Z,53.19
2023-05-22T05:49:38.008Z,54.37
2023-05-22T05:50:38.176Z,55.35
2023-05-22T05:51:38.083Z,49.10
2023-05-22T05:52:38.096Z,52.01
2023-05-22T05:53:38.133Z,49.95
2023-05-22T05:54:38.151Z,57.00
2023-05-22T05:55:38.211Z,37.37
2023-05-22T05:56:38.400Z,27.37
2023-05-22T05:57:38.353Z,27.09
2023-05-22T05:58:38.441Z,25.00
2023-05-22T05:59:38.538Z,25.00
2023-05-22T06:00:38.757Z,25.00
2023-05-22T06:01:38.834Z,33.46
2023-05-22T06:02:38.871Z,28.09
2023-05-22T06:03:39.012Z,25.12
2023-05-22T06:04:39.007Z,29.42
2023-05-22T06:05:39.168Z,25.57
2023-05-22T06:06:39.299Z,25.00
2023-05-22T06:07:39.306Z,24.26
2023-05-22T06:08:39.369Z,26.49
2023-05-22T06:09:39.426Z,25.52
2023-05-22T06:10:39.777Z,25.00
2023-05-22T06:11:39.624Z,28.01
2023-05-22T06:12:39.721Z,25.00
2023-05-22T06:13:39.796Z,27.58
2023-05-22T06:14:39.915Z,25.00
2023-05-22T06:15:39.996Z,25.00
2023-05-22T06:16:40.560Z,25.20
2023-05-22T06:17:40.212Z,29.52
2023-05-22T06:18:40.258Z,25.86
2023-05-22T06:19:40.364Z,25.00
2023-05-22T06:20:40.771Z,25.00
2023-05-22T06:21:40.532Z,26.45
2023-05-22T06:22:40.628Z,32.03
2023-05-22T06:23:40.713Z,32.98
2023-05-22T06:24:40.800Z,25.00
2023-05-22T06:25:40.891Z,29.37
2023-05-22T06:26:40.999Z,32.24
2023-05-22T06:27:41.060Z,35.40
2023-05-22T06:28:41.134Z,25.00
2023-05-22T06:29:41.215Z,24.54
2023-05-22T06:30:41.317Z,24.98
2023-05-22T06:31:41.451Z,28.48
2023-05-22T06:32:41.634Z,24.13
2023-05-22T06:33:41.554Z,25.00
2023-05-22T06:34:41.585Z,30.21
2023-05-22T06:35:41.636Z,33.28
2023-05-22T06:36:41.661Z,28.92
2023-05-22T06:37:41.680Z,33.75
2023-05-22T06:38:41.703Z,38.99
2023-05-22T06:39:41.709Z,41.06
2023-05-22T06:40:41.996Z,27.03
2023-05-22T06:41:41.754Z,27.99
2023-05-22T06:42:41.778Z,23.89
2023-05-22T06:43:41.815Z,22.77
2023-05-22T06:44:41.868Z,22.15
2023-05-22T06:45:41.945Z,28.17
2023-05-22T06:46:41.845Z,36.73
2023-05-22T06:47:41.928Z,46.59
2023-05-22T06:49:57.487Z,25.00
2023-05-22T06:50:57.516Z,25.00
2023-05-22T06:51:57.498Z,25.00
2023-05-22T06:52:57.500Z,25.00
2023-05-22T06:53:57.496Z,25.00
2023-05-22T06:54:57.500Z,42.78
2023-05-22T06:55:57.495Z,43.46
2023-05-22T06:56:57.526Z,46.03
2023-05-22T06:57:57.499Z,54.97
2023-05-22T06:58:57.477Z,76.10
2023-05-22T06:59:57.478Z,109.83
2023-05-22T07:00:57.639Z,133.28
2023-05-22T07:01:57.481Z,146.60
2023-05-22T07:02:57.557Z,147.94
2023-05-22T07:03:57.457Z,187.93
2023-05-22T07:04:57.480Z,201.98
2023-05-22T07:05:57.563Z,204.89
2023-05-22T07:06:57.447Z,248.68
2023-05-22T07:07:57.483Z,169.43
2023-05-22T07:08:57.461Z,91.82
2023-05-22T07:09:57.467Z,37.22
2023-05-22T07:10:57.482Z,29.45
2023-05-22T07:11:57.501Z,13.48
2023-05-22T07:12:57.535Z,0.00
2023-05-22T07:13:57.500Z,19.84
2023-05-22T07:14:57.503Z,0.00
2023-05-22T07:15:57.536Z,0.46
2023-05-22T07:16:57.657Z,28.79
2023-05-22T07:17:57.560Z,37.93
2023-05-22T07:18:57.564Z,45.13
2023-05-22T07:19:57.544Z,41.40
2023-05-22T07:20:57.571Z,23.36
2023-05-22T07:21:57.576Z,39.93
2023-05-22T07:22:57.592Z,48.91
2023-05-22T07:23:57.616Z,56.43
2023-05-22T07:24:57.607Z,43.09
2023-05-22T07:25:57.629Z,14.75
2023-05-22T07:26:57.621Z,7.65
2023-05-22T07:27:57.625Z,10.73
2023-05-22T07:28:57.627Z,20.61
2023-05-22T07:29:57.637Z,26.69
2023-05-22T07:30:57.642Z,27.46
2023-05-22T07:31:57.730Z,8.94
2023-05-22T07:32:57.652Z,26.11
2023-05-22T07:33:57.643Z,38.57
2023-05-22T07:34:57.646Z,46.20
2023-05-22T07:35:57.640Z,46.77
2023-05-22T07:36:57.668Z,28.33
2023-05-22T07:37:57.650Z,0.00
2023-05-22T07:38:57.678Z,0.00
2023-05-22T07:39:57.639Z,0.00
2023-05-22T07:40:57.633Z,0.00
2023-05-22T07:41:59.406Z,0.00
2023-05-22T07:42:57.737Z,0.00
2023-05-22T07:43:57.800Z,0.00
2023-05-22T07:44:57.810Z,0.00
2023-05-22T07:45:57.859Z,0.00
2023-05-22T07:46:57.903Z,0.00
2023-05-22T07:47:57.925Z,0.00
2023-05-22T07:48:58.116Z,0.00
2023-05-22T07:49:58.007Z,0.00
2023-05-22T07:50:58.049Z,21.16
2023-05-22T07:51:58.114Z,34.37
2023-05-22T07:52:58.151Z,55.41
2023-05-22T07:54:58.219Z,45.57
2023-05-22T07:55:58.260Z,62.77
2023-05-22T07:56:58.299Z,79.01
2023-05-22T07:57:58.349Z,90.03
2023-05-22T07:58:58.370Z,93.53
2023-05-22T07:59:58.404Z,101.02
2023-05-22T08:00:58.415Z,106.88
2023-05-22T08:01:58.638Z,105.47
2023-05-22T08:02:58.591Z,103.91
2023-05-22T08:03:58.682Z,104.73
2023-05-22T08:04:58.616Z,112.47
2023-05-22T08:05:58.578Z,118.37
2023-05-22T08:06:58.591Z,126.26
2023-05-22T08:07:58.633Z,136.95
2023-05-22T08:08:58.609Z,143.58
2023-05-22T08:09:58.625Z,147.18
2023-05-22T08:11:58.626Z,157.52
2023-05-22T08:12:58.642Z,163.42
2023-05-22T08:13:58.626Z,165.56
2023-05-22T08:14:58.605Z,171.58
2023-05-22T08:16:00.415Z,173.24
2023-05-22T08:16:58.737Z,173.27
2023-05-22T08:17:58.716Z,173.87
2023-05-22T08:18:58.693Z,176.16
2023-05-22T08:19:58.695Z,173.22
2023-05-22T08:20:58.671Z,177.10
2023-05-22T08:21:58.682Z,183.00
2023-05-22T08:22:58.647Z,182.64
2023-05-22T08:23:58.637Z,181.09
2023-05-22T08:24:58.667Z,179.61
2023-05-22T08:25:58.676Z,177.49
2023-05-22T08:26:58.662Z,177.54
2023-05-22T08:27:58.648Z,178.16
2023-05-22T08:28:58.664Z,178.77
2023-05-22T08:29:58.683Z,178.01
2023-05-22T08:30:58.635Z,177.74
2023-05-22T08:31:58.712Z,126.94
2023-05-22T08:32:58.661Z,107.96
2023-05-22T08:33:58.625Z,96.54
2023-05-22T08:34:58.611Z,85.83
2023-05-22T08:35:58.623Z,71.08
2023-05-22T08:36:58.644Z,57.15
2023-05-22T08:37:58.622Z,45.96
2023-05-22T08:38:58.610Z,36.10
2023-05-22T08:39:58.568Z,21.71
2023-05-22T08:40:58.576Z,24.21
2023-05-22T08:41:58.566Z,12.97
2023-05-22T08:42:58.657Z,10.09
2023-05-22T08:43:58.643Z,0.00
2023-05-22T08:44:58.580Z,0.34
2023-05-22T08:45:58.574Z,5.40
2023-05-22T08:46:58.621Z,18.29
2023-05-22T08:47:58.593Z,31.62
2023-05-22T08:48:58.633Z,30.43
2023-05-22T08:49:58.576Z,20.33
2023-05-22T08:50:58.621Z,25.27
2023-05-22T08:51:58.574Z,25.32
2023-05-22T08:52:58.570Z,25.92
2023-05-22T08:53:58.627Z,28.36
2023-05-22T08:54:58.558Z,32.40
2023-05-22T08:55:58.555Z,51.80
2023-05-22T08:56:58.557Z,53.43
2023-05-22T08:57:58.588Z,51.79
2023-05-22T08:58:58.574Z,58.49
2023-05-22T08:59:58.558Z,56.69
2023-05-22T09:00:58.602Z,32.13
2023-05-22T09:01:58.583Z,34.20
2023-05-22T09:02:58.610Z,30.59
2023-05-22T09:03:58.619Z,26.33
2023-05-22T09:04:58.561Z,21.92
2023-05-22T09:05:58.560Z,25.17
2023-05-22T09:06:58.550Z,17.66
2023-05-22T09:08:08.438Z,20.06
2023-05-22T09:08:59.588Z,11.71
2023-05-22T09:09:58.550Z,10.03
2023-05-22T09:10:58.556Z,4.60
2023-05-22T09:11:58.568Z,0.12
2023-05-22T09:12:58.558Z,0.00
2023-05-22T09:13:58.582Z,0.00
2023-05-22T09:14:58.581Z,3.55
2023-05-22T09:15:58.566Z,12.30
2023-05-22T09:16:58.634Z,18.74
2023-05-22T09:17:58.610Z,16.88
2023-05-22T09:18:58.628Z,17.79
2023-05-22T09:19:58.581Z,16.67
2023-05-22T09:20:58.585Z,19.61
2023-05-22T09:21:58.587Z,32.50
2023-05-22T09:22:58.606Z,39.69
2023-05-22T09:23:58.624Z,39.74
2023-05-22T09:24:58.965Z,40.37
2023-05-22T09:25:58.614Z,42.86
2023-05-22T09:26:58.609Z,49.16
2023-05-22T09:27:58.610Z,64.42
2023-05-22T09:28:58.602Z,72.34
2023-05-22T09:29:58.602Z,79.24
2023-05-22T09:30:58.627Z,77.31
2023-05-22T09:31:58.640Z,77.20
2023-05-22T09:32:58.652Z,80.07
2023-05-22T09:33:58.588Z,87.15
2023-05-22T09:34:58.595Z,88.07
2023-05-22T09:35:58.573Z,91.78
2023-05-22T09:36:58.564Z,85.19
2023-05-22T09:37:58.578Z,90.61
2023-05-22T09:38:58.571Z,89.40
2023-05-22T09:39:58.608Z,95.22
2023-05-22T09:40:58.594Z,92.89
2023-05-22T09:41:58.575Z,92.16
2023-05-22T09:42:58.579Z,92.39
2023-05-22T09:44:00.335Z,94.02
2023-05-22T09:44:58.575Z,92.60
2023-05-22T09:45:58.631Z,92.77
2023-05-22T09:46:58.562Z,92.64
2023-05-22T09:47:58.613Z,98.82
2023-05-22T09:48:58.550Z,103.14
2023-05-22T09:49:58.545Z,103.31
2023-05-22T09:50:58.542Z,104.09
2023-05-22T09:51:58.555Z,106.40
2023-05-22T09:52:58.522Z,106.12
2023-05-22T09:53:58.508Z,103.30
2023-05-22T09:54:58.521Z,97.03
2023-05-22T09:55:58.519Z,95.73
2023-05-22T09:56:58.557Z,97.23
2023-05-22T09:57:58.532Z,95.49
2023-05-22T09:58:58.518Z,103.26
2023-05-22T09:59:58.549Z,105.00
2023-05-22T10:00:58.518Z,110.32
2023-05-22T10:01:58.605Z,115.81
2023-05-22T10:02:58.624Z,125.27
2023-05-22T10:03:58.660Z,131.50
2023-05-22T10:04:58.677Z,138.32
2023-05-22T10:05:58.808Z,139.37
2023-05-22T10:06:58.800Z,142.93
2023-05-22T10:07:58.885Z,150.15
2023-05-22T10:08:58.926Z,153.91
2023-05-22T10:09:58.979Z,157.53
2023-05-22T10:10:59.025Z,157.13
2023-05-22T10:11:59.081Z,158.48
2023-05-22T10:12:59.203Z,158.65
2023-05-22T10:13:59.056Z,159.68
2023-05-22T10:14:59.094Z,158.71
2023-05-22T10:15:59.138Z,160.43
2023-05-22T10:16:59.024Z,164.61
2023-05-22T10:17:59.048Z,171.18
2023-05-22T10:18:59.057Z,181.78
2023-05-22T10:19:58.990Z,183.10
2023-05-22T10:20:58.993Z,186.66
2023-05-22T10:21:58.993Z,188.23
2023-05-22T10:22:58.983Z,186.56
2023-05-22T10:23:58.997Z,186.06
2023-05-22T10:24:59.043Z,189.72
2023-05-22T10:25:59.091Z,188.93
2023-05-22T10:26:59.132Z,188.32
2023-05-22T10:27:59.177Z,187.16
2023-05-22T10:28:59.306Z,182.95
2023-05-22T10:29:59.274Z,175.27
2023-05-22T10:30:59.312Z,175.32
2023-05-22T10:31:59.343Z,178.96
2023-05-22T10:32:59.452Z,183.79
2023-05-22T10:33:59.410Z,184.05
2023-05-22T10:34:59.374Z,185.19
2023-05-22T10:35:59.350Z,186.86
2023-05-22T10:37:13.278Z,188.36
2023-05-22T10:38:00.338Z,180.78
2023-05-22T10:38:59.331Z,166.37
2023-05-22T10:39:59.305Z,161.55
2023-05-22T10:40:59.317Z,138.58
2023-05-22T10:41:59.289Z,118.71
2023-05-22T10:42:59.302Z,112.13
2023-05-22T10:43:59.275Z,108.72
2023-05-22T10:44:59.363Z,94.06
2023-05-22T10:45:59.298Z,91.71
2023-05-22T10:46:59.267Z,90.95
2023-05-22T10:47:59.271Z,91.50
2023-05-22T10:48:59.241Z,89.75
2023-05-22T10:49:59.247Z,90.18
2023-05-22T10:51:00.010Z,96.19
2023-05-22T10:51:59.303Z,125.11
2023-05-22T10:52:59.375Z,171.11
2023-05-22T10:53:59.434Z,175.68
2023-05-22T10:54:59.401Z,176.04
2023-05-22T10:55:59.405Z,169.50
2023-05-22T10:56:59.375Z,175.97
2023-05-22T10:57:59.364Z,173.50
2023-05-22T10:58:59.385Z,178.13
2023-05-22T10:59:59.331Z,210.20
2023-05-22T11:00:59.395Z,207.51
2023-05-22T11:01:59.314Z,194.02
2023-05-22T11:03:10.073Z,190.63
2023-05-22T11:04:00.290Z,191.43
2023-05-22T11:04:59.267Z,191.73
2023-05-22T11:05:59.264Z,189.76
2023-05-22T11:06:59.229Z,188.33
2023-05-22T11:07:59.212Z,189.56
2023-05-22T11:08:59.190Z,194.62
2023-05-22T11:09:59.173Z,199.75
2023-05-22T11:10:59.309Z,202.96
2023-05-22T11:11:59.149Z,208.09
2023-05-22T11:12:59.139Z,213.41
2023-05-22T11:13:59.144Z,213.92
2023-05-22T11:14:59.216Z,217.67
2023-05-22T11:15:59.231Z,221.65
2023-05-22T11:16:59.377Z,224.51
2023-05-22T11:17:59.389Z,227.53
2023-05-22T11:19:00.608Z,227.79
2023-05-22T11:19:59.437Z,226.60
2023-05-22T11:20:59.332Z,225.56
2023-05-22T11:21:59.304Z,226.34
2023-05-22T11:22:59.291Z,221.70
2023-05-22T11:23:59.249Z,221.20
2023-05-22T11:24:59.288Z,222.86
2023-05-22T11:25:59.203Z,215.69
2023-05-22T11:26:59.199Z,190.21
2023-05-22T11:27:59.174Z,183.54
2023-05-22T11:28:59.160Z,185.50
2023-05-22T11:29:59.156Z,192.16
2023-05-22T11:30:59.187Z,195.62
2023-05-22T11:31:59.113Z,199.05
2023-05-22T11:32:59.198Z,200.79
2023-05-22T11:33:59.089Z,200.59
2023-05-22T11:34:59.074Z,201.78
2023-05-22T11:35:59.068Z,201.92
2023-05-22T11:36:59.061Z,202.69
2023-05-22T11:37:59.045Z,203.51
2023-05-22T11:38:59.030Z,202.84
2023-05-22T11:39:59.015Z,202.70
2023-05-22T11:40:59.006Z,201.06
2023-05-22T11:41:58.989Z,200.16
2023-05-22T11:42:58.989Z,197.26
2023-05-22T11:43:58.958Z,196.57
2023-05-22T11:44:58.950Z,195.39
2023-05-22T11:45:58.971Z,195.46
2023-05-22T11:46:58.926Z,195.40
2023-05-22T11:47:58.953Z,192.63
2023-05-22T11:48:58.994Z,196.53
2023-05-22T11:49:58.889Z,198.23
2023-05-22T11:50:58.900Z,200.67
2023-05-22T11:51:58.878Z,202.05
2023-05-22T11:52:58.895Z,205.20
2023-05-22T11:53:58.874Z,206.39
2023-05-22T11:54:58.856Z,206.75
2023-05-22T11:55:58.854Z,205.93
2023-05-22T11:56:58.896Z,208.87
2023-05-22T11:57:58.959Z,212.02
2023-05-22T11:58:59.009Z,212.44
2023-05-22T11:59:59.030Z,214.29
2023-05-22T12:00:59.066Z,215.81
2023-05-22T12:01:59.108Z,217.45
2023-05-22T12:02:59.470Z,218.12
2023-05-22T12:03:59.328Z,217.88
2023-05-22T12:04:59.332Z,219.30
2023-05-22T12:05:59.309Z,219.39
2023-05-22T12:06:59.402Z,221.34
2023-05-22T12:07:59.407Z,222.96
2023-05-22T12:08:59.424Z,224.12
2023-05-22T12:09:59.459Z,225.18
2023-05-22T12:10:59.461Z,225.20
2023-05-22T12:11:59.453Z,225.49
2023-05-22T12:12:59.432Z,226.20
2023-05-22T12:13:59.416Z,227.14
2023-05-22T12:14:59.407Z,228.88
2023-05-22T12:15:59.483Z,227.28
2023-05-22T12:16:59.435Z,228.28
2023-05-22T12:17:59.411Z,228.30
2023-05-22T12:18:59.388Z,228.64
2023-05-22T12:19:59.339Z,228.97
2023-05-22T12:20:59.425Z,229.27
2023-05-22T12:21:59.337Z,229.67
2023-05-22T12:22:59.313Z,228.62
2023-05-22T12:23:59.317Z,228.99
2023-05-22T12:24:59.276Z,228.60
2023-05-22T12:25:59.294Z,229.37
2023-05-22T12:26:59.265Z,228.39
2023-05-22T12:27:59.315Z,229.97
2023-05-22T12:28:59.349Z,229.37
2023-05-22T12:29:59.387Z,230.84
2023-05-22T12:30:59.419Z,231.77
2023-05-22T12:31:59.493Z,231.65
2023-05-22T12:32:59.509Z,233.68
2023-05-22T12:33:59.530Z,236.22
2023-05-22T12:34:59.567Z,237.91
2023-05-22T12:35:59.598Z,239.16
2023-05-22T12:36:59.720Z,240.60
2023-05-22T12:37:59.670Z,241.12
2023-05-22T12:38:59.694Z,243.10
2023-05-22T12:39:59.722Z,244.40